Time;durP1;ratioP1;P1;durP2;ratioP2;P2;SDS_P1;SDS_P2;PMS_P1;PMS_P2;Temp;Humidity;BMP_temperature;BMP_pressure;BME280_temperature;BME280_humidity;BME280_pressure;Samples;Min_cycle;Max_cycle;Signal;HPM_P1;HPM_P2
2021/07/09 00:01:08;;;;;;;;;;;;;;;17.35;100.00;98019.63;4960941;28;20588;-79
2021/07/09 00:03:35;;;;;;;40.17;25.90;;;;;;;17.37;100.00;98028.28;4977706;28;19922;-79
2021/07/09 00:06:04;;;;;;;46.03;27.10;;;;;;;17.31;100.00;98033.25;4943787;28;20067;-79
2021/07/09 00:08:36;;;;;;;41.75;27.98;;;;;;;17.27;100.00;98032.31;4943098;28;20593;-80
2021/07/09 00:11:09;;;;;;;43.88;29.73;;;;;;;17.28;100.00;98036.66;4940661;28;20294;-81
2021/07/09 00:13:40;;;;;;;36.75;28.95;;;;;;;17.30;100.00;98031.63;4948350;28;20054;-79
2021/07/09 00:16:06;;;;;;;45.80;29.25;;;;;;;17.27;100.00;98035.06;4944006;28;20057;-79
2021/07/09 00:18:36;;;;;;;48.20;30.40;;;;;;;17.23;100.00;98028.72;4976399;28;20419;-80
2021/07/09 00:21:03;;;;;;;43.85;29.50;;;;;;;17.25;100.00;98020.94;4961522;28;20422;-79
2021/07/09 00:23:30;;;;;;;48.67;30.23;;;;;;;17.19;100.00;98021.53;4976816;28;20084;-80
2021/07/09 00:25:58;;;;;;;48.75;27.67;;;;;;;17.28;100.00;98022.19;4974349;28;20050;-79
2021/07/09 00:28:25;;;;;;;45.40;28.33;;;;;;;17.29;100.00;98021.03;4973006;28;20142;-81
2021/07/09 00:30:52;;;;;;;50.08;26.83;;;;;;;17.20;100.00;98012.97;4974336;28;20046;-81
2021/07/09 00:33:21;;;;;;;37.45;25.42;;;;;;;17.23;100.00;98011.50;4957161;28;20050;-79
2021/07/09 00:35:47;;;;;;;37.38;22.42;;;;;;;17.22;100.00;98004.41;4957119;28;20046;-79
2021/07/09 00:38:14;;;;;;;28.65;17.90;;;;;;;17.09;100.00;98009.13;4973085;28;20411;-79
2021/07/09 00:40:41;;;;;;;29.15;17.83;;;;;;;17.14;100.00;97999.88;4972603;28;20133;-79
2021/07/09 00:43:08;;;;;;;32.13;17.92;;;;;;;17.17;100.00;98002.72;4977445;28;20499;-79
2021/07/09 00:45:35;;;;;;;27.90;18.48;;;;;;;17.11;100.00;98011.53;4982836;28;20419;-79
2021/07/09 00:48:04;;;;;;;25.80;18.70;;;;;;;17.14;100.00;98013.56;4980249;28;20054;-79
2021/07/09 00:50:31;;;;;;;26.02;19.60;;;;;;;17.13;100.00;98015.53;4980537;28;20042;-77
2021/07/09 00:52:57;;;;;;;27.13;18.88;;;;;;;17.10;100.00;98010.75;4991975;28;20054;-79
2021/07/09 00:55:24;;;;;;;25.52;17.63;;;;;;;17.13;100.00;98003.78;4987941;28;20043;-78
2021/07/09 00:57:52;;;;;;;29.25;17.65;;;;;;;17.13;100.00;98006.50;4987566;28;20038;-77
2021/07/09 01:00:21;;;;;;;30.40;18.73;;;;;;;17.11;100.00;98004.13;4984881;28;20102;-80
2021/07/09 01:02:51;;;;;;;24.33;17.48;;;;;;;17.06;100.00;98001.63;4975424;28;20042;-78
2021/07/09 01:05:20;;;;;;;26.98;18.15;;;;;;;17.12;100.00;98005.72;4973441;28;20043;-78
2021/07/09 01:07:47;;;;;;;30.50;18.52;;;;;;;17.12;100.00;98011.19;4974996;28;20046;-78
2021/07/09 01:10:17;;;;;;;27.33;17.75;;;;;;;17.12;100.00;98002.19;4973684;28;20039;-80
2021/07/09 01:12:45;;;;;;;21.90;17.52;;;;;;;17.09;100.00;97998.19;4973447;28;20051;-78
2021/07/09 01:15:14;;;;;;;24.67;17.60;;;;;;;17.09;100.00;98000.13;4982271;28;20054;-79
2021/07/09 01:17:42;;;;;;;26.25;18.60;;;;;;;17.09;100.00;97998.19;4986038;28;20086;-79
2021/07/09 01:20:12;;;;;;;25.25;17.98;;;;;;;17.07;100.00;97996.97;4986511;28;20046;-80
2021/07/09 01:22:42;;;;;;;29.08;18.02;;;;;;;17.10;100.00;97999.00;4985525;28;20044;-81
2021/07/09 01:25:21;;;;;;;22.98;16.83;;;;;;;17.14;100.00;98005.34;4984935;28;20046;-79
2021/07/09 01:27:55;;;;;;;26.55;16.42;;;;;;;17.10;100.00;97986.13;4973314;28;20054;-78
2021/07/09 01:30:23;;;;;;;25.67;16.85;;;;;;;17.12;100.00;97997.50;4972527;28;20062;-78
2021/07/09 01:32:51;;;;;;;18.40;14.60;;;;;;;17.14;100.00;97987.00;4972980;28;20514;-78
2021/07/09 01:35:21;;;;;;;17.63;12.88;;;;;;;17.12;100.00;97972.09;4974183;28;20057;-78
2021/07/09 01:37:59;;;;;;;14.93;11.15;;;;;;;17.15;100.00;97976.88;4974823;28;20047;-80
2021/07/09 01:40:28;;;;;;;18.95;10.02;;;;;;;17.05;100.00;97972.69;4974530;28;20387;-78
2021/07/09 01:42:55;;;;;;;13.35;9.35;;;;;;;17.03;100.00;97968.72;4976353;28;20039;-78
2021/07/09 01:45:22;;;;;;;17.58;9.18;;;;;;;17.00;100.00;97970.22;4973894;28;20070;-78
2021/07/09 01:47:50;;;;;;;14.05;9.27;;;;;;;16.98;100.00;97961.53;4974432;28;20047;-79
2021/07/09 01:50:17;;;;;;;12.60;10.18;;;;;;;17.02;100.00;97967.91;4973860;28;20053;-78
2021/07/09 01:52:46;;;;;;;13.07;10.63;;;;;;;17.01;100.00;97971.78;4974213;28;20038;-79
2021/07/09 01:55:17;;;;;;;15.93;10.27;;;;;;;17.00;100.00;97969.41;4975602;28;20224;-79
2021/07/09 01:57:45;;;;;;;12.40;8.90;;;;;;;16.97;100.00;97965.44;4958629;28;20101;-79
2021/07/09 02:00:20;;;;;;;12.63;7.75;;;;;;;16.99;100.00;97971.34;4975277;28;20051;-79
2021/07/09 02:02:47;;;;;;;9.15;7.18;;;;;;;16.93;100.00;97961.78;4972878;28;20043;-79
2021/07/09 02:05:16;;;;;;;7.20;6.50;;;;;;;16.94;100.00;97970.78;4973178;28;20046;-79
2021/07/09 02:07:44;;;;;;;7.25;6.55;;;;;;;16.94;100.00;97968.06;4973100;28;20094;-79
2021/07/09 02:10:13;;;;;;;7.57;6.50;;;;;;;16.98;100.00;97963.50;4972964;28;20066;-79
2021/07/09 02:12:40;;;;;;;8.27;6.57;;;;;;;17.00;100.00;97959.28;4960016;28;20046;-79
2021/07/09 02:15:12;;;;;;;8.57;7.43;;;;;;;16.96;100.00;97955.63;4975882;28;20099;-78
2021/07/09 02:17:40;;;;;;;9.45;8.07;;;;;;;16.95;100.00;97937.63;4976930;28;20347;-80
2021/07/09 02:20:09;;;;;;;10.35;9.25;;;;;;;16.99;100.00;97932.25;4978130;28;20042;-79
2021/07/09 02:22:37;;;;;;;13.20;9.50;;;;;;;16.94;100.00;97905.94;4976327;28;20130;-80
2021/07/09 02:25:05;;;;;;;11.57;9.32;;;;;;;16.90;100.00;97905.06;4977432;28;20054;-79
2021/07/09 02:27:53;;;;;;;14.15;9.75;;;;;;;16.88;100.00;97896.41;4977024;28;20051;-79
2021/07/09 02:30:21;;;;;;;13.90;9.27;;;;;;;16.91;100.00;97894.91;4975977;28;20051;-79
2021/07/09 02:32:49;;;;;;;10.93;9.35;;;;;;;16.87;100.00;97886.63;4973502;28;20042;-79
2021/07/09 02:35:18;;;;;;;11.00;8.13;;;;;;;16.87;100.00;97869.41;4973116;28;20066;-80
2021/07/09 02:37:46;;;;;;;9.52;8.52;;;;;;;16.82;100.00;97851.31;4971930;28;20049;-79
2021/07/09 02:40:15;;;;;;;9.02;8.02;;;;;;;16.82;100.00;97823.97;4972271;28;20058;-79
2021/07/09 02:42:48;;;;;;;10.98;7.72;;;;;;;16.79;100.00;97794.59;4973205;28;20046;-81
2021/07/09 02:45:19;;;;;;;8.93;7.50;;;;;;;16.78;100.00;97773.84;4973089;28;20053;-79
2021/07/09 02:47:46;;;;;;;9.82;7.97;;;;;;;16.72;100.00;97767.09;4972120;28;20407;-79
2021/07/09 02:50:16;;;;;;;10.73;9.45;;;;;;;16.69;100.00;97779.50;4972547;28;20049;-79
2021/07/09 02:52:43;;;;;;;14.82;11.20;;;;;;;16.70;100.00;97772.88;4972701;28;20034;-78
2021/07/09 02:55:11;;;;;;;17.83;14.05;;;;;;;16.67;100.00;97768.13;4974624;28;20047;-80
2021/07/09 02:57:41;;;;;;;17.17;14.48;;;;;;;16.67;100.00;97773.59;4955953;28;20047;-82
2021/07/09 03:00:14;;;;;;;20.00;15.32;;;;;;;16.72;100.00;97788.94;4953607;28;20049;-80
2021/07/09 03:02:43;;;;;;;20.42;17.15;;;;;;;16.73;100.00;97796.00;4943169;28;20050;-80
2021/07/09 03:05:12;;;;;;;21.48;17.33;;;;;;;16.74;100.00;97816.72;4945366;28;20070;-80
2021/07/09 03:07:40;;;;;;;24.00;18.35;;;;;;;16.72;100.00;97829.97;4959109;28;20514;-80
2021/07/09 03:10:11;;;;;;;21.60;17.63;;;;;;;16.70;100.00;97821.28;4952270;28;20070;-81
2021/07/09 03:12:40;;;;;;;24.70;18.35;;;;;;;16.77;100.00;97821.50;4950004;28;20074;-80
2021/07/09 03:15:11;;;;;;;26.73;19.58;;;;;;;16.79;100.00;97825.47;4950755;28;20042;-80
2021/07/09 03:17:39;;;;;;;23.92;19.40;;;;;;;16.78;100.00;97818.41;4980926;23;20060;-80
2021/07/09 03:20:09;;;;;;;29.75;21.70;;;;;;;16.73;100.00;97818.66;4990933;28;20042;-81
2021/07/09 03:22:36;;;;;;;33.65;23.00;;;;;;;16.76;100.00;97836.31;4994125;28;20116;-81
2021/07/09 03:25:05;;;;;;;33.60;23.35;;;;;;;16.69;100.00;97831.47;4995048;28;20053;-82
2021/07/09 03:27:31;;;;;;;35.90;25.25;;;;;;;16.73;100.00;97845.22;4996398;28;20176;-83
2021/07/09 03:29:59;;;;;;;35.40;22.15;;;;;;;16.70;100.00;97838.50;5001216;28;20195;-81
2021/07/09 03:32:27;;;;;;;32.75;21.85;;;;;;;16.68;100.00;97843.53;4997465;28;20073;-82
2021/07/09 03:34:53;;;;;;;31.70;21.77;;;;;;;16.68;100.00;97826.31;4988211;28;20051;-83
2021/07/09 03:37:20;;;;;;;33.65;24.50;;;;;;;16.65;100.00;97827.00;4988686;28;20141;-82
2021/07/09 03:39:46;;;;;;;38.00;24.55;;;;;;;16.68;100.00;97820.84;4976047;28;20050;-83
2021/07/09 03:42:13;;;;;;;53.90;24.73;;;;;;;16.71;100.00;97815.50;4976131;28;20584;-82
2021/07/09 03:44:39;;;;;;;45.80;26.13;;;;;;;16.71;100.00;97820.16;4999813;28;20054;-83
2021/07/09 03:47:06;;;;;;;54.63;26.63;;;;;;;16.73;100.00;97823.34;4994192;28;20647;-82
2021/07/09 03:49:33;;;;;;;53.60;26.80;;;;;;;16.75;100.00;97813.63;4995708;28;20462;-83
2021/07/09 03:51:59;;;;;;;33.35;24.77;;;;;;;16.78;100.00;97804.75;4994914;28;20038;-82
2021/07/09 03:54:26;;;;;;;33.47;22.48;;;;;;;16.74;100.00;97809.34;4995469;28;20053;-82
2021/07/09 03:56:52;;;;;;;26.42;20.85;;;;;;;16.82;100.00;97818.50;5003132;28;20426;-80
2021/07/09 03:59:19;;;;;;;25.00;17.63;;;;;;;16.79;100.00;97792.66;4993338;28;20548;-84
2021/07/09 04:01:46;;;;;;;26.98;18.02;;;;;;;16.77;100.00;97800.44;4995080;28;20455;-84
2021/07/09 04:04:12;;;;;;;21.67;16.98;;;;;;;16.75;100.00;97796.44;4994208;28;20054;-76
2021/07/09 04:06:39;;;;;;;24.45;18.00;;;;;;;16.69;100.00;97806.06;4990867;28;20046;-74
2021/07/09 04:09:08;;;;;;;22.08;17.08;;;;;;;16.70;100.00;97805.69;4991098;28;20450;-76
2021/07/09 04:11:35;;;;;;;24.77;15.65;;;;;;;16.76;100.00;97811.69;4986268;28;20390;-77
2021/07/09 04:14:01;;;;;;;23.73;15.60;;;;;;;16.83;100.00;97801.75;4993985;28;20106;-82
2021/07/09 04:16:28;;;;;;;18.05;13.10;;;;;;;16.79;100.00;97809.06;4997403;28;20481;-83
2021/07/09 04:18:54;;;;;;;18.90;13.23;;;;;;;16.84;100.00;97794.34;4992531;28;20042;-84
2021/07/09 04:21:23;;;;;;;20.90;14.00;;;;;;;16.90;100.00;97800.34;5007539;28;20050;-84
2021/07/09 04:23:50;;;;;;;18.17;14.13;;;;;;;16.92;100.00;97792.59;4991111;28;20506;-82
2021/07/09 04:26:17;;;;;;;17.45;13.63;;;;;;;16.93;100.00;97799.66;4996345;28;20076;-84
2021/07/09 04:28:44;;;;;;;18.58;14.15;;;;;;;16.94;100.00;97806.69;4999039;28;20072;-85
2021/07/09 04:31:13;;;;;;;18.58;14.27;;;;;;;16.96;100.00;97796.19;4996856;28;20046;-84
2021/07/09 04:33:40;;;;;;;22.10;15.07;;;;;;;16.99;100.00;97798.22;4997332;28;20508;-85
2021/07/09 04:36:07;;;;;;;19.27;14.70;;;;;;;17.05;100.00;97797.63;5007382;28;20482;-86
2021/07/09 04:38:33;;;;;;;16.35;12.15;;;;;;;17.07;100.00;97791.78;5002030;28;20061;-86
2021/07/09 04:41:00;;;;;;;17.38;11.45;;;;;;;17.03;100.00;97793.66;5002236;28;20057;-86
2021/07/09 04:43:27;;;;;;;13.45;9.70;;;;;;;17.09;100.00;97786.75;4999955;28;20470;-84
2021/07/09 04:46:15;;;;;;;16.38;9.38;;;;;;;17.20;100.00;97785.06;4998759;28;20046;-85
2021/07/09 04:48:43;;;;;;;14.05;9.18;;;;;;;17.24;100.00;97786.75;5000285;28;20042;-84
2021/07/09 04:51:11;;;;;;;14.18;9.73;;;;;;;17.19;100.00;97783.47;4998605;28;20450;-83
2021/07/09 04:53:38;;;;;;;14.52;8.93;;;;;;;17.20;100.00;97771.41;4999930;28;20042;-81
2021/07/09 04:56:05;;;;;;;11.32;8.48;;;;;;;17.16;100.00;97774.03;5000181;28;20109;-84
2021/07/09 04:58:31;;;;;;;15.95;9.05;;;;;;;17.19;100.00;97778.81;4998243;28;20046;-83
2021/07/09 05:00:58;;;;;;;13.90;10.02;;;;;;;17.23;100.00;97774.22;4997920;28;20335;-84
2021/07/09 05:03:24;;;;;;;13.50;9.57;;;;;;;17.28;100.00;97773.97;4997749;28;20543;-82
2021/07/09 05:05:51;;;;;;;14.80;10.13;;;;;;;17.29;100.00;97775.53;4996997;28;20046;-81
2021/07/09 05:08:17;;;;;;;12.38;10.75;;;;;;;17.32;100.00;97768.56;4996999;28;20490;-83
2021/07/09 05:10:44;;;;;;;13.50;10.93;;;;;;;17.29;100.00;97778.25;4998503;28;20097;-85
2021/07/09 05:13:11;;;;;;;14.07;11.27;;;;;;;17.32;100.00;97771.28;4996604;28;20039;-83
2021/07/09 05:15:37;;;;;;;15.68;11.85;;;;;;;17.36;100.00;97774.91;4998406;28;20101;-84
2021/07/09 05:18:06;;;;;;;13.68;11.68;;;;;;;17.23;100.00;97767.97;4996987;28;20127;-83
2021/07/09 05:20:32;;;;;;;13.68;11.00;;;;;;;17.26;100.00;97784.47;4999336;28;20046;-86
2021/07/09 05:22:59;;;;;;;16.05;10.45;;;;;;;17.26;100.00;97778.19;4980470;28;20042;-87
2021/07/09 05:25:29;;;;;;;16.65;11.13;;;;;;;17.17;100.00;97761.97;4998102;28;20116;-86
2021/07/09 05:27:56;;;;;;;13.82;10.77;;;;;;;17.22;100.00;97764.41;5001838;28;20042;-85
2021/07/09 05:30:22;;;;;;;11.70;9.80;;;;;;;17.36;100.00;97762.03;5001731;28;20050;-85
2021/07/09 05:32:50;;;;;;;12.68;10.70;;;;;;;17.33;100.00;97765.47;5002832;28;20097;-85
2021/07/09 05:35:16;;;;;;;10.50;9.00;;;;;;;17.35;100.00;97763.16;4998390;28;20049;-83
2021/07/09 05:37:44;;;;;;;8.48;7.18;;;;;;;17.33;100.00;97754.53;4992792;28;20054;-84
2021/07/09 05:40:11;;;;;;;8.77;6.70;;;;;;;17.34;100.00;97760.81;4997392;28;20097;-83
2021/07/09 05:42:42;;;;;;;8.27;7.05;;;;;;;17.36;100.00;97761.25;4993314;28;20375;-88
2021/07/09 05:45:09;;;;;;;5.00;4.50;;;;;;;17.41;100.00;97745.34;4990211;28;20042;-83
2021/07/09 05:47:35;;;;;;;5.75;4.60;;;;;;;17.43;100.00;97747.72;4992604;28;20192;-84
2021/07/09 05:50:02;;;;;;;6.35;3.85;;;;;;;17.39;100.00;97741.38;4999118;28;20053;-84
2021/07/09 05:52:29;;;;;;;5.85;3.60;;;;;;;17.41;100.00;97739.88;5011640;28;20108;-85
2021/07/09 05:54:56;;;;;;;3.95;3.55;;;;;;;17.33;100.00;97742.78;5015304;28;20058;-85
2021/07/09 05:57:23;;;;;;;4.47;4.03;;;;;;;17.35;100.00;97743.22;4999461;28;20108;-86
2021/07/09 05:59:49;;;;;;;5.53;4.60;;;;;;;17.26;100.00;97731.69;4996044;28;20050;-86
2021/07/09 06:02:16;;;;;;;6.57;5.90;;;;;;;17.27;100.00;97746.94;5007344;28;20052;-83
2021/07/09 06:04:42;;;;;;;7.47;6.68;;;;;;;17.31;100.00;97756.03;4997006;28;20588;-84
2021/07/09 06:07:09;;;;;;;8.98;7.53;;;;;;;17.25;100.00;97751.97;5006165;28;20062;-86
2021/07/09 06:09:36;;;;;;;10.13;8.15;;;;;;;17.15;100.00;97753.31;5019683;28;20042;-84
2021/07/09 06:12:05;;;;;;;10.50;8.73;;;;;;;17.17;100.00;97761.16;4996811;28;20046;-84
2021/07/09 06:14:32;;;;;;;10.63;9.15;;;;;;;17.17;100.00;97751.00;5008129;28;20038;-84
2021/07/09 06:17:01;;;;;;;10.45;9.23;;;;;;;17.19;100.00;97750.66;4984139;28;20043;-85
2021/07/09 06:19:28;;;;;;;13.35;10.48;;;;;;;17.30;100.00;97757.97;4975523;28;20439;-83
2021/07/09 06:21:57;;;;;;;20.88;11.00;;;;;;;17.37;100.00;97766.34;4973888;28;20046;-84
2021/07/09 06:24:24;;;;;;;13.45;11.07;;;;;;;17.32;100.00;97765.81;4976113;28;20213;-84
2021/07/09 06:26:51;;;;;;;14.88;11.65;;;;;;;17.37;100.00;97768.28;4995415;28;20047;-85
2021/07/09 06:29:20;;;;;;;14.45;12.30;;;;;;;17.33;100.00;97768.22;4982639;28;20053;-85
2021/07/09 06:31:47;;;;;;;15.55;11.35;;;;;;;17.37;100.00;97760.06;4995065;28;20113;-84
2021/07/09 06:34:17;;;;;;;14.77;12.30;;;;;;;17.34;100.00;97741.66;4994467;28;20117;-85
2021/07/09 06:36:43;;;;;;;17.67;12.48;;;;;;;17.28;100.00;97752.06;5009427;28;20056;-86
2021/07/09 06:39:10;;;;;;;15.00;12.23;;;;;;;17.45;100.00;97768.09;5009382;28;20503;-86
2021/07/09 06:41:37;;;;;;;16.52;13.15;;;;;;;17.38;100.00;97758.94;4998529;28;20612;-85
2021/07/09 06:44:06;;;;;;;15.75;13.18;;;;;;;17.37;100.00;97768.28;4990256;28;20049;-86
2021/07/09 06:46:33;;;;;;;12.73;10.00;;;;;;;17.28;100.00;97776.69;5007189;28;20069;-83
2021/07/09 06:49:02;;;;;;;12.57;9.73;;;;;;;17.30;100.00;97782.59;4997772;28;20094;-83
2021/07/09 06:51:29;;;;;;;13.27;11.02;;;;;;;17.17;100.00;97772.09;4976318;28;20556;-83
2021/07/09 06:53:55;;;;;;;14.50;11.30;;;;;;;17.21;100.00;97786.69;4974471;28;20042;-82
2021/07/09 06:56:22;;;;;;;14.70;10.85;;;;;;;17.23;100.00;97787.09;4974107;28;20457;-82
2021/07/09 06:58:49;;;;;;;16.10;10.90;;;;;;;17.23;100.00;97787.09;4973583;28;20035;-82
2021/07/09 07:01:16;;;;;;;17.73;10.07;;;;;;;17.33;100.00;97789.31;4988142;28;20085;-81
2021/07/09 07:03:43;;;;;;;11.10;8.73;;;;;;;17.34;100.00;97780.72;4972206;28;20053;-83
2021/07/09 07:06:11;;;;;;;12.23;9.02;;;;;;;17.42;100.00;97778.97;4973876;28;20451;-82
2021/07/09 07:08:38;;;;;;;11.23;9.00;;;;;;;17.50;100.00;97769.00;4990127;28;20089;-84
2021/07/09 07:11:05;;;;;;;9.52;7.20;;;;;;;17.58;100.00;97774.28;4983535;28;20481;-81
2021/07/09 07:13:31;;;;;;;11.02;7.43;;;;;;;17.51;100.00;97765.88;4986407;28;20090;-84
2021/07/09 07:15:58;;;;;;;7.32;6.57;;;;;;;17.49;100.00;97759.19;4993295;28;20137;-84
2021/07/09 07:18:25;;;;;;;9.20;7.50;;;;;;;17.63;100.00;97759.50;4997388;28;20082;-84
2021/07/09 07:20:53;;;;;;;9.55;8.52;;;;;;;17.63;100.00;97752.09;5000344;28;20077;-85
2021/07/09 07:23:20;;;;;;;9.75;8.50;;;;;;;17.69;100.00;97753.41;5007167;28;20073;-84
2021/07/09 07:25:48;;;;;;;9.90;8.90;;;;;;;17.69;100.00;97749.88;5005024;28;20072;-82
2021/07/09 07:28:15;;;;;;;14.27;10.20;;;;;;;17.79;100.00;97747.38;4990179;28;20106;-81
2021/07/09 07:31:02;;;;;;;11.23;8.68;;;;;;;17.86;100.00;97752.22;4990731;28;20270;-80
2021/07/09 07:33:29;;;;;;;10.35;8.25;;;;;;;17.78;100.00;97747.75;4990749;28;20138;-83
2021/07/09 07:36:16;;;;;;;8.85;7.85;;;;;;;17.97;100.00;97736.78;4991192;28;20058;-85
2021/07/09 07:38:45;;;;;;;8.98;6.60;;;;;;;18.06;100.00;97731.91;4994859;28;20047;-83
2021/07/09 07:41:14;;;;;;;7.38;6.57;;;;;;;18.19;100.00;97732.53;5007013;28;20042;-83
2021/07/09 07:43:44;;;;;;;6.53;5.82;;;;;;;18.34;100.00;97723.44;5001214;28;20043;-86
2021/07/09 07:46:13;;;;;;;5.35;4.70;;;;;;;18.72;100.00;97719.81;4997005;28;20069;-85
2021/07/09 07:48:40;;;;;;;5.65;3.35;;;;;;;19.09;100.00;97707.13;4996690;28;20047;-85
2021/07/09 07:51:06;;;;;;;3.78;2.80;;;;;;;19.42;100.00;97700.97;4998236;28;20050;-85
2021/07/09 07:53:34;;;;;;;5.47;2.78;;;;;;;19.47;100.00;97690.47;5015080;28;20038;-84
2021/07/09 07:56:01;;;;;;;4.35;2.58;;;;;;;19.22;100.00;97684.59;5013704;28;20058;-86
2021/07/09 07:58:28;;;;;;;4.30;2.72;;;;;;;18.87;100.00;97677.75;4996502;28;20061;-87
2021/07/09 08:00:55;;;;;;;3.85;2.88;;;;;;;18.78;100.00;97672.53;4998383;28;20061;-84
2021/07/09 08:03:22;;;;;;;2.63;2.40;;;;;;;18.86;100.00;97676.97;5000194;28;20049;-85
2021/07/09 08:05:50;;;;;;;2.10;1.90;;;;;;;18.92;100.00;97680.19;4994431;28;20055;-85
2021/07/09 08:08:17;;;;;;;2.60;1.80;;;;;;;18.80;100.00;97678.44;5009389;28;20054;-85
2021/07/09 08:10:43;;;;;;;2.08;1.88;;;;;;;18.80;100.00;97664.72;4993766;28;20058;-86
2021/07/09 08:13:10;;;;;;;5.28;2.65;;;;;;;18.97;100.00;97674.41;4977506;28;20043;-88
2021/07/09 08:15:38;;;;;;;4.60;2.92;;;;;;;18.72;100.00;97679.47;4976604;28;20510;-87
2021/07/09 08:18:08;;;;;;;3.25;2.70;;;;;;;18.75;100.00;97672.47;4985222;28;20361;-88
2021/07/09 08:20:34;;;;;;;5.53;2.03;;;;;;;18.70;100.00;97678.25;4984022;28;20490;-86
2021/07/09 08:23:02;;;;;;;2.90;1.90;;;;;;;18.72;100.00;97676.75;5003271;28;20034;-88
2021/07/09 08:25:30;;;;;;;2.33;1.92;;;;;;;18.73;100.00;97674.78;4957059;28;20472;-90
2021/07/09 08:27:56;;;;;;;1.88;1.77;;;;;;;18.70;100.00;97670.03;4986394;28;20043;-86
2021/07/09 08:30:23;;;;;;;2.25;1.90;;;;;;;18.65;100.00;97669.19;4995895;28;20141;-87
2021/07/09 08:32:49;;;;;;;2.70;2.05;;;;;;;18.65;100.00;97671.94;5005279;28;20166;-86
2021/07/09 08:35:18;;;;;;;2.65;1.95;;;;;;;18.66;100.00;97669.97;5006696;28;20057;-84
2021/07/09 08:37:53;;;;;;;2.40;2.20;;;;;;;18.27;100.00;97674.72;5000001;28;20046;-83
2021/07/09 08:40:20;;;;;;;5.70;2.75;;;;;;;18.07;100.00;97700.59;5005778;28;20058;-83
2021/07/09 08:42:48;;;;;;;5.30;2.78;;;;;;;17.78;100.00;97715.66;4993444;28;20047;-81
2021/07/09 08:45:15;;;;;;;3.88;3.13;;;;;;;17.63;100.00;97713.75;4986456;28;20338;-82
2021/07/09 08:47:42;;;;;;;4.45;3.00;;;;;;;17.55;100.00;97722.97;5001118;28;20039;-81
2021/07/09 08:50:11;;;;;;;7.38;3.35;;;;;;;17.68;100.00;97726.41;4985801;28;20111;-82
2021/07/09 08:52:40;;;;;;;6.90;2.95;;;;;;;17.66;100.00;97731.41;5008272;28;20046;-82
2021/07/09 08:55:12;;;;;;;3.33;3.03;;;;;;;17.89;100.00;97721.34;5003961;28;20053;-82
2021/07/09 08:57:41;;;;;;;3.67;2.70;;;;;;;18.30;100.00;97717.88;5006318;28;20085;-82
2021/07/09 09:00:25;;;;;;;3.25;2.58;;;;;;;18.81;100.00;97718.44;5004753;28;20074;-80
2021/07/09 09:02:55;;;;;;;2.10;1.75;;;;;;;18.97;100.00;97710.09;4995728;28;20348;-83
2021/07/09 09:05:24;;;;;;;3.35;1.70;;;;;;;19.15;100.00;97711.91;5007166;28;20050;-82
2021/07/09 09:08:10;;;;;;;1.67;1.27;;;;;;;19.07;100.00;97707.47;4992320;28;20178;-83
2021/07/09 09:10:48;;;;;;;2.38;1.30;;;;;;;19.00;100.00;97701.88;5010988;28;20046;-86
2021/07/09 09:13:22;;;;;;;1.60;1.33;;;;;;;19.17;100.00;97706.09;4999630;28;20065;-82
2021/07/09 09:16:02;;;;;;;3.17;0.98;;;;;;;19.36;100.00;97703.22;5001052;28;20057;-81
2021/07/09 09:18:44;;;;;;;1.20;0.80;;;;;;;19.51;100.00;97694.03;5028424;23;20049;-84
2021/07/09 09:21:21;;;;;;;1.00;0.80;;;;;;;19.37;100.00;97680.13;5013968;28;20052;-83
2021/07/09 09:23:48;;;;;;;2.88;1.00;;;;;;;19.38;100.00;97694.66;4980682;28;20046;-83
2021/07/09 09:26:47;;;;;;;1.33;1.23;;;;;;;19.52;100.00;97711.31;4980283;28;20116;-86
2021/07/09 09:29:37;;;;;;;4.85;1.67;;;;;;;19.34;100.00;97697.31;4969168;28;20056;-82
2021/07/09 09:32:14;;;;;;;1.55;1.30;;;;;;;19.11;100.00;97713.84;4985644;28;20140;-86
2021/07/09 09:35:05;;;;;;;1.85;1.00;;;;;;;18.83;100.00;97690.63;4982290;28;20081;-84
2021/07/09 09:37:55;;;;;;;1.10;1.00;;;;;;;19.12;100.00;97685.22;4997317;28;20509;-81
2021/07/09 09:40:29;;;;;;;1.20;1.10;;;;;;;19.26;100.00;97693.66;4996402;28;20060;-82
2021/07/09 09:42:56;;;;;;;2.90;0.98;;;;;;;19.17;100.00;97682.19;4979468;28;20459;-83
2021/07/09 09:45:28;;;;;;;2.50;1.00;;;;;;;18.92;100.00;97675.50;4963373;28;20050;-85
2021/07/09 09:48:06;;;;;;;0.80;0.80;;;;;;;18.90;100.00;97685.25;4971882;28;20481;-85
2021/07/09 09:50:48;;;;;;;0.80;0.80;;;;;;;19.12;100.00;97693.44;4971493;28;20050;-84
2021/07/09 09:53:57;;;;;;;1.17;1.00;;;;;;;19.80;100.00;97693.25;4982619;28;20230;-86
2021/07/09 09:56:40;;;;;;;1.95;1.20;;;;;;;20.38;100.00;97674.31;4973199;28;20521;-87
2021/07/09 09:59:41;;;;;;;4.25;1.02;;;;;;;20.59;100.00;97667.44;4972073;28;20070;-85
2021/07/09 10:02:44;;;;;;;1.13;1.02;;;;;;;20.02;100.00;97642.09;4989496;28;20100;-87
2021/07/09 10:05:20;;;;;;;3.78;1.20;;;;;;;19.39;100.00;97660.53;4989128;28;20042;-85
2021/07/09 10:07:52;;;;;;;2.30;1.10;;;;;;;19.56;100.00;97679.97;4982248;28;20504;-82
2021/07/09 10:10:19;;;;;;;1.17;1.00;;;;;;;20.21;100.00;97657.59;4979540;28;20140;-81
2021/07/09 10:13:00;;;;;;;1.20;1.10;;;;;;;20.69;100.00;97656.53;4978556;28;20122;-81
2021/07/09 10:15:30;;;;;;;1.83;1.00;;;;;;;20.80;100.00;97646.38;4985585;28;20043;-84
2021/07/09 10:18:00;;;;;;;1.00;0.93;;;;;;;20.97;100.00;97656.75;4986486;28;20065;-83
2021/07/09 10:20:29;;;;;;;1.25;1.13;;;;;;;21.48;100.00;97659.47;4987807;28;20042;-82
2021/07/09 10:22:59;;;;;;;1.40;1.20;;;;;;;22.60;100.00;97643.69;4983676;28;20046;-82
2021/07/09 10:25:27;;;;;;;2.03;1.10;;;;;;;22.49;100.00;97651.97;4994054;28;20046;-79
2021/07/09 10:27:55;;;;;;;2.85;0.90;;;;;;;24.56;100.00;97633.25;4970682;28;20088;-82
2021/07/09 10:30:36;;;;;;;2.85;1.00;;;;;;;25.13;100.00;97633.59;4956240;28;20066;-84
2021/07/09 10:33:29;;;;;;;1.20;1.10;;;;;;;23.74;100.00;97632.13;4949077;28;20054;-85
2021/07/09 10:35:58;;;;;;;4.70;0.98;;;;;;;22.92;100.00;97630.69;4973848;28;20153;-81
2021/07/09 10:38:39;;;;;;;2.50;1.10;;;;;;;21.49;100.00;97627.19;4971896;28;20054;-80
2021/07/09 10:41:18;;;;;;;2.20;1.10;;;;;;;20.63;100.00;97627.00;4973398;28;20137;-82
2021/07/09 10:44:18;;;;;;;2.35;1.38;;;;;;;20.35;100.00;97649.53;4989062;28;20049;-82
2021/07/09 10:46:49;;;;;;;2.22;1.40;;;;;;;20.38;100.00;97665.28;4957034;28;20054;-81
2021/07/09 10:50:04;;;;;;;2.08;1.38;;;;;;;20.54;100.00;97660.34;4979994;28;20545;-83
2021/07/09 10:52:49;;;;;;;1.92;1.80;;;;;;;19.49;100.00;97660.69;4954153;28;20137;-81
2021/07/09 10:55:31;;;;;;;1.70;1.40;;;;;;;18.71;100.00;97688.88;4994553;28;20080;-82
2021/07/09 10:58:07;;;;;;;2.78;1.00;;;;;;;18.28;100.00;97698.25;4993681;28;20042;-87
2021/07/09 11:00:56;;;;;;;1.10;1.00;;;;;;;18.09;100.00;97716.69;4990918;28;20058;-83
2021/07/09 11:03:34;;;;;;;1.40;1.30;;;;;;;17.73;100.00;97685.03;4952808;28;20057;-87
2021/07/09 11:06:06;;;;;;;1.05;0.88;;;;;;;17.57;100.00;97714.41;4956256;28;20054;-86
2021/07/09 11:08:33;;;;;;;2.13;1.33;;;;;;;17.65;100.00;97740.81;4957833;28;20042;-85
2021/07/09 11:11:13;;;;;;;2.47;1.10;;;;;;;17.54;100.00;97721.41;4968442;28;20050;-85
2021/07/09 11:13:59;;;;;;;2.95;1.33;;;;;;;17.50;100.00;97747.84;4972608;28;20049;-85
2021/07/09 11:16:35;;;;;;;1.80;0.90;;;;;;;17.13;100.00;97738.41;4985632;28;20379;-84
2021/07/09 11:19:04;;;;;;;;;;;;;;;17.16;100.00;97756.84;4954893;28;20138;-86
2021/07/09 11:21:47;;;;;;;0.93;0.80;;;;;;;17.00;100.00;97753.31;4984651;28;19932;-87
2021/07/09 11:24:31;;;;;;;1.67;0.90;;;;;;;16.77;100.00;97739.47;4956542;28;20055;-85
2021/07/09 11:27:08;;;;;;;2.22;1.00;;;;;;;16.72;100.00;97767.09;4956214;28;20050;-87
2021/07/09 11:29:47;;;;;;;1.13;0.90;;;;;;;16.62;100.00;97767.59;4959868;28;20137;-86
2021/07/09 11:32:17;;;;;;;1.42;1.00;;;;;;;16.48;100.00;97769.91;4966433;28;20051;-85